Time;durP1;ratioP1;P1;durP2;ratioP2;P2;SDS_P1;SDS_P2;PMS_P1;PMS_P2;Temp;Humidity;BMP_temperature;BMP_pressure;BME280_temperature;BME280_humidity;BME280_pressure;Samples;Min_cycle;Max_cycle;Signal;HPM_P1;HPM_P2
2021/06/17 00:02:17;;;;;;;23.70;16.48;;;16.80;99.90;;;;;;5032916;28;20022;-74
2021/06/17 00:04:43;;;;;;;22.92;16.23;;;16.80;99.90;;;;;;5053709;28;20032;-74
2021/06/17 00:07:08;;;;;;;20.55;15.90;;;16.80;99.90;;;;;;5053856;28;20483;-74
2021/06/17 00:09:34;;;;;;;20.83;15.93;;;16.80;99.90;;;;;;5053639;28;20021;-75
2021/06/17 00:12:00;;;;;;;21.65;15.52;;;16.80;99.90;;;;;;5051319;28;20478;-74
2021/06/17 00:14:31;;;;;;;23.00;15.82;;;16.80;99.90;;;;;;5044239;28;20024;-74
2021/06/17 00:16:57;;;;;;;22.52;15.95;;;16.70;99.90;;;;;;5033651;28;20459;-75
2021/06/17 00:19:24;;;;;;;23.40;16.40;;;16.80;99.90;;;;;;5050503;28;20032;-75
2021/06/17 00:21:50;;;;;;;24.45;17.42;;;16.70;99.90;;;;;;5053711;28;20021;-75
2021/06/17 00:24:16;;;;;;;23.30;17.10;;;16.70;99.90;;;;;;5053517;28;20506;-75
2021/06/17 00:26:41;;;;;;;25.80;16.27;;;16.80;99.90;;;;;;5052262;28;20029;-75
2021/06/17 00:29:07;;;;;;;23.50;16.83;;;16.70;99.90;;;;;;5053401;28;20025;-74
2021/06/17 00:31:33;;;;;;;21.08;16.48;;;16.70;99.90;;;;;;5036733;28;20017;-74
2021/06/17 00:33:58;;;;;;;23.75;16.15;;;16.70;99.90;;;;;;5033417;28;20101;-74
2021/06/17 00:36:24;;;;;;;25.38;17.73;;;16.60;99.90;;;;;;5033514;28;20434;-74
2021/06/17 00:38:49;;;;;;;21.75;17.80;;;16.50;99.90;;;;;;5033346;28;20033;-74
2021/06/17 00:41:15;;;;;;;27.10;17.50;;;16.50;99.90;;;;;;5033281;28;20059;-74
2021/06/17 00:43:41;;;;;;;22.70;16.25;;;16.50;99.90;;;;;;5032136;28;20491;-74
2021/06/17 00:46:07;;;;;;;22.42;17.33;;;16.50;99.90;;;;;;5033103;28;20033;-74
2021/06/17 00:48:32;;;;;;;24.90;17.75;;;16.50;99.90;;;;;;5032057;28;20398;-74
2021/06/17 00:51:01;;;;;;;25.77;17.83;;;16.40;99.90;;;;;;5033178;28;20101;-75
2021/06/17 00:53:32;;;;;;;26.65;19.63;;;16.40;99.90;;;;;;5033247;28;20049;-75
2021/06/17 00:55:58;;;;;;;22.60;17.95;;;16.40;99.90;;;;;;5033107;28;20033;-75
2021/06/17 00:58:25;;;;;;;25.95;17.63;;;16.40;99.90;;;;;;5033071;28;20402;-75
2021/06/17 01:00:51;;;;;;;27.80;17.58;;;16.40;99.90;;;;;;5033039;28;20140;-75
2021/06/17 01:03:17;;;;;;;25.13;17.65;;;16.40;99.90;;;;;;5033019;28;20105;-75
2021/06/17 01:05:43;;;;;;;27.25;17.52;;;16.30;99.90;;;;;;5033039;28;20116;-75
2021/06/17 01:08:20;;;;;;;25.17;18.10;;;16.30;99.90;;;;;;5050168;28;20087;-75
2021/06/17 01:11:03;;;;;;;23.45;17.55;;;16.30;99.90;;;;;;5052957;28;20167;-75
2021/06/17 01:14:00;;;;;;;24.30;16.98;;;16.30;99.90;;;;;;5052937;28;20021;-75
2021/06/17 01:16:36;;;;;;;24.15;17.77;;;16.30;99.90;;;;;;5038610;28;20040;-75
2021/06/17 01:19:31;;;;;;;22.50;17.05;;;16.30;99.90;;;;;;5052691;28;20111;-75
2021/06/17 01:22:11;;;;;;;20.73;16.75;;;16.30;99.90;;;;;;5040018;28;20037;-75
2021/06/17 01:25:00;;;;;;;23.98;17.20;;;16.20;99.90;;;;;;5059423;28;20032;-75
2021/06/17 01:27:41;;;;;;;20.80;15.77;;;16.30;99.90;;;;;;5059474;28;20035;-75
2021/06/17 01:30:16;;;;;;;25.48;17.58;;;16.30;99.90;;;;;;5059319;28;20025;-75
2021/06/17 01:32:55;;;;;;;27.85;18.00;;;16.30;99.90;;;;;;5059539;28;20032;-75
2021/06/17 01:35:24;;;;;;;25.98;17.70;;;16.30;99.90;;;;;;5059340;28;20017;-75
2021/06/17 01:37:53;;;;;;;23.58;17.95;;;16.20;99.90;;;;;;5059265;28;20029;-74
2021/06/17 01:40:19;;;;;;;20.83;16.80;;;16.20;99.90;;;;;;5059234;28;20060;-75
2021/06/17 01:42:46;;;;;;;20.80;16.13;;;16.10;99.90;;;;;;5057564;28;20378;-75
2021/06/17 01:45:12;;;;;;;27.20;17.02;;;16.10;99.90;;;;;;5039414;28;20085;-75
2021/06/17 01:47:38;;;;;;;20.70;16.17;;;16.10;99.90;;;;;;5037876;28;20018;-75
2021/06/17 01:50:06;;;;;;;21.77;16.63;;;16.10;99.90;;;;;;5039117;28;20022;-75
2021/06/17 01:52:32;;;;;;;22.90;17.35;;;16.20;99.90;;;;;;5037928;28;20052;-75
2021/06/17 01:55:00;;;;;;;26.98;17.33;;;16.10;99.90;;;;;;5039098;28;20029;-75
2021/06/17 01:57:27;;;;;;;26.80;17.63;;;16.20;99.90;;;;;;5039122;28;20048;-74
2021/06/17 01:59:55;;;;;;;22.02;17.55;;;16.20;99.90;;;;;;5039111;28;20025;-75
2021/06/17 02:02:21;;;;;;;22.50;17.67;;;16.20;99.90;;;;;;5039115;28;20506;-75
2021/06/17 02:04:51;;;;;;;23.33;16.88;;;16.20;99.90;;;;;;5039178;28;20209;-75
2021/06/17 02:07:19;;;;;;;19.30;15.60;;;16.20;99.90;;;;;;5049231;28;20414;-75
2021/06/17 02:09:47;;;;;;;20.90;15.70;;;16.20;99.90;;;;;;5059049;28;20039;-74
2021/06/17 02:12:13;;;;;;;23.08;15.73;;;16.20;99.90;;;;;;5057656;28;20021;-75
2021/06/17 02:14:40;;;;;;;25.33;17.42;;;16.20;99.90;;;;;;5057598;28;20032;-74
2021/06/17 02:17:07;;;;;;;26.67;17.67;;;16.10;99.90;;;;;;5058622;28;20021;-74
2021/06/17 02:19:34;;;;;;;23.38;17.15;;;16.10;99.90;;;;;;5058954;28;20556;-74
2021/06/17 02:22:02;;;;;;;25.77;17.73;;;16.10;99.90;;;;;;5058871;28;20048;-74
2021/06/17 02:24:29;;;;;;;21.55;15.88;;;16.10;99.90;;;;;;5057615;28;20393;-75
2021/06/17 02:27:10;;;;;;;28.20;18.10;;;16.10;99.90;;;;;;5058584;28;20040;-75
2021/06/17 02:29:46;;;;;;;26.15;17.25;;;16.00;99.90;;;;;;5058202;28;20027;-75
2021/06/17 02:32:19;;;;;;;22.45;16.95;;;16.00;99.90;;;;;;5058833;28;20032;-75
2021/06/17 02:34:47;;;;;;;20.98;16.85;;;16.00;99.90;;;;;;5053304;28;20068;-75
2021/06/17 02:37:15;;;;;;;23.60;17.55;;;16.00;99.90;;;;;;5055495;28;20471;-75
2021/06/17 02:39:43;;;;;;;20.95;16.27;;;16.00;99.90;;;;;;5055560;28;20539;-75
2021/06/17 02:42:10;;;;;;;23.88;18.38;;;16.00;99.90;;;;;;5054152;28;20113;-75
2021/06/17 02:44:36;;;;;;;27.73;18.83;;;15.90;99.90;;;;;;5055375;28;20032;-75
2021/06/17 02:47:02;;;;;;;25.25;17.95;;;15.90;99.90;;;;;;5054099;28;20013;-75
2021/06/17 02:49:27;;;;;;;23.52;16.60;;;15.90;99.90;;;;;;5036338;28;20041;-75
2021/06/17 02:51:53;;;;;;;23.35;18.50;;;15.90;99.90;;;;;;5035439;28;20032;-75
2021/06/17 02:54:19;;;;;;;24.13;17.95;;;16.00;99.90;;;;;;5035346;28;20030;-75
2021/06/17 02:57:09;;;;;;;25.55;19.02;;;16.00;99.90;;;;;;5035440;28;20124;-75
2021/06/17 02:59:35;;;;;;;22.33;16.02;;;15.90;99.90;;;;;;5035417;28;20038;-75
2021/06/17 03:02:12;;;;;;;24.33;17.27;;;16.00;99.90;;;;;;5035232;28;20030;-75
2021/06/17 03:04:48;;;;;;;26.45;18.52;;;16.10;99.90;;;;;;5035148;28;20072;-75
2021/06/17 03:07:23;;;;;;;24.70;16.77;;;16.00;99.90;;;;;;5035181;28;20036;-75
2021/06/17 03:09:55;;;;;;;21.48;16.15;;;16.10;99.90;;;;;;5035105;28;20026;-75
2021/06/17 03:12:24;;;;;;;22.77;17.60;;;16.10;99.90;;;;;;5035137;28;20022;-75
2021/06/17 03:14:52;;;;;;;27.27;18.98;;;16.20;99.90;;;;;;5034991;28;20420;-75
2021/06/17 03:17:20;;;;;;;20.65;17.08;;;16.20;99.90;;;;;;5033968;28;20376;-75
2021/06/17 03:19:49;;;;;;;24.30;15.90;;;16.30;99.90;;;;;;5054853;28;20116;-75
2021/06/17 03:22:17;;;;;;;20.67;16.42;;;16.40;99.90;;;;;;5054692;28;20040;-75
2021/06/17 03:24:48;;;;;;;25.77;18.08;;;16.50;99.90;;;;;;5054473;28;20028;-75
2021/06/17 03:27:15;;;;;;;23.80;16.05;;;16.70;99.90;;;;;;5053389;28;20552;-75
2021/06/17 03:29:47;;;;;;;21.15;16.35;;;16.90;99.90;;;;;;5054340;28;20166;-75
2021/06/17 03:32:14;;;;;;;20.30;15.95;;;17.00;99.90;;;;;;5054647;28;20474;-75
2021/06/17 03:34:42;;;;;;;22.55;16.08;;;17.20;99.90;;;;;;5044927;28;20025;-75
2021/06/17 03:37:09;;;;;;;18.60;15.27;;;17.40;99.90;;;;;;5054326;28;20021;-75
2021/06/17 03:39:37;;;;;;;21.90;16.35;;;17.50;99.90;;;;;;5054454;28;20036;-75
2021/06/17 03:42:04;;;;;;;19.35;15.65;;;17.60;99.90;;;;;;5053158;28;20067;-75
2021/06/17 03:44:31;;;;;;;21.67;16.95;;;17.70;99.90;;;;;;5041277;28;20055;-75
2021/06/17 03:46:58;;;;;;;21.52;16.73;;;17.80;99.90;;;;;;5051805;28;20435;-75
2021/06/17 03:49:25;;;;;;;20.83;15.50;;;18.00;99.90;;;;;;5036569;28;20112;-75
2021/06/17 03:51:52;;;;;;;23.70;15.75;;;18.00;99.90;;;;;;5033070;28;20021;-75
2021/06/17 03:54:25;;;;;;;20.77;16.52;;;18.10;99.50;;;;;;5034194;28;20159;-75
2021/06/17 03:57:00;;;;;;;20.65;15.40;;;18.20;97.60;;;;;;5034301;28;20026;-75
2021/06/17 03:59:29;;;;;;;21.08;16.00;;;18.40;95.70;;;;;;5038407;28;20086;-75
2021/06/17 04:01:56;;;;;;;19.48;15.18;;;18.40;96.30;;;;;;5034458;28;20022;-75
2021/06/17 04:04:22;;;;;;;20.70;15.43;;;18.60;97.40;;;;;;5040851;28;20086;-75
2021/06/17 04:06:52;;;;;;;21.48;15.23;;;18.70;93.90;;;;;;5054012;28;20033;-75
2021/06/17 04:09:27;;;;;;;23.48;14.90;;;18.70;92.90;;;;;;5052630;28;20029;-75
2021/06/17 04:12:03;;;;;;;21.42;15.40;;;18.80;92.50;;;;;;5053745;28;20386;-75
2021/06/17 04:14:31;;;;;;;19.52;14.30;;;18.90;92.10;;;;;;5053318;28;20033;-75
2021/06/17 04:16:57;;;;;;;24.00;14.70;;;19.00;91.40;;;;;;5053107;28;20029;-75
2021/06/17 04:19:27;;;;;;;19.63;14.10;;;19.10;90.80;;;;;;5051690;28;20513;-75
2021/06/17 04:21:58;;;;;;;19.05;14.70;;;19.20;89.00;;;;;;5053668;28;20502;-75
2021/06/17 04:24:25;;;;;;;20.58;14.88;;;19.30;89.00;;;;;;5052373;28;20048;-75
2021/06/17 04:26:53;;;;;;;18.25;14.63;;;19.40;89.60;;;;;;5053605;28;20075;-75
2021/06/17 04:29:19;;;;;;;17.73;13.45;;;19.50;88.10;;;;;;5053175;28;20474;-76
2021/06/17 04:31:47;;;;;;;20.50;13.82;;;19.60;86.20;;;;;;5036502;28;20040;-75
2021/06/17 04:34:13;;;;;;;18.25;13.57;;;19.60;86.80;;;;;;5049904;28;20542;-75
2021/06/17 04:36:39;;;;;;;17.65;13.38;;;19.70;87.00;;;;;;5053410;28;20421;-76
2021/06/17 04:39:06;;;;;;;17.30;13.75;;;19.70;85.60;;;;;;5053207;28;20095;-76
2021/06/17 04:41:31;;;;;;;19.55;14.13;;;19.80;86.60;;;;;;5051968;28;20024;-75
2021/06/17 04:44:01;;;;;;;20.13;14.68;;;19.90;86.50;;;;;;5053104;28;20386;-75
2021/06/17 04:46:29;;;;;;;19.83;14.02;;;20.00;86.80;;;;;;5044209;28;20025;-75
2021/06/17 04:48:56;;;;;;;20.63;13.70;;;20.00;86.30;;;;;;5053177;28;20021;-75
2021/06/17 04:51:24;;;;;;;19.25;14.32;;;20.00;86.60;;;;;;5053083;28;20018;-75
2021/06/17 04:53:52;;;;;;;20.33;14.55;;;20.10;86.00;;;;;;5050333;28;20108;-75
2021/06/17 04:56:18;;;;;;;18.20;14.10;;;20.20;83.40;;;;;;5031321;28;20368;-75
2021/06/17 04:58:47;;;;;;;19.55;14.07;;;20.20;85.50;;;;;;5048725;28;20037;-75
2021/06/17 05:01:13;;;;;;;16.80;13.23;;;20.30;85.70;;;;;;5051458;28;20028;-75
2021/06/17 05:03:39;;;;;;;16.50;13.40;;;20.40;87.00;;;;;;5053022;28;20471;-76
2021/06/17 05:06:05;;;;;;;15.13;13.40;;;20.40;87.00;;;;;;5052710;28;20029;-76
2021/06/17 05:11:15;;;;;;;17.98;13.40;;;20.40;85.60;;;;;;5052903;28;20044;-76
2021/06/17 05:13:43;;;;;;;19.58;12.55;;;20.50;87.30;;;;;;5052981;28;20021;-76
2021/06/17 05:16:09;;;;;;;15.85;12.23;;;20.60;87.80;;;;;;5052690;28;20029;-76
2021/06/17 05:18:34;;;;;;;20.75;12.57;;;20.70;87.90;;;;;;5052771;28;20032;-76
2021/06/17 05:21:01;;;;;;;13.95;11.50;;;20.80;83.50;;;;;;5052707;28;20021;-76
2021/06/17 05:23:28;;;;;;;13.35;11.95;;;20.90;81.30;;;;;;5052568;28;20029;-76
2021/06/17 05:25:56;;;;;;;15.63;12.10;;;20.90;81.10;;;;;;5052658;28;20032;-76
2021/06/17 05:28:24;;;;;;;12.93;10.98;;;21.00;83.90;;;;;;5052490;28;20021;-76
2021/06/17 05:30:51;;;;;;;13.27;10.85;;;21.00;81.60;;;;;;5048696;28;20033;-76
2021/06/17 05:33:18;;;;;;;15.70;10.98;;;21.20;81.40;;;;;;5037190;28;20468;-76
2021/06/17 05:35:46;;;;;;;12.70;11.02;;;21.20;79.10;;;;;;5040062;28;20029;-74
2021/06/17 05:38:12;;;;;;;12.77;11.02;;;21.30;77.60;;;;;;5040941;28;20048;-74
2021/06/17 05:40:37;;;;;;;19.17;11.45;;;21.40;78.90;;;;;;5040060;28;20029;-74
2021/06/17 05:43:03;;;;;;;13.55;10.32;;;21.40;78.30;;;;;;5037881;28;20021;-74
2021/06/17 05:45:29;;;;;;;12.38;10.20;;;21.50;79.30;;;;;;5036650;28;20049;-73
2021/06/17 05:47:54;;;;;;;12.95;10.13;;;21.50;77.50;;;;;;5040845;28;20017;-73
2021/06/17 05:50:20;;;;;;;14.02;10.38;;;21.70;76.60;;;;;;5044167;28;20364;-73
2021/06/17 05:52:46;;;;;;;13.57;11.73;;;21.80;78.80;;;;;;5045278;28;20077;-74
2021/06/17 05:55:12;;;;;;;14.60;9.43;;;21.90;78.00;;;;;;5041429;28;20021;-73
2021/06/17 05:57:38;;;;;;;13.07;10.10;;;22.00;78.70;;;;;;5039759;28;20556;-73
2021/06/17 06:00:06;;;;;;;14.98;10.65;;;22.10;79.40;;;;;;5043944;28;20025;-73
2021/06/17 06:02:31;;;;;;;13.27;10.93;;;22.30;76.80;;;;;;5040725;28;20021;-73
2021/06/17 06:04:57;;;;;;;11.90;10.07;;;22.30;76.50;;;;;;5042596;28;20033;-74
2021/06/17 06:07:23;;;;;;;15.15;10.82;;;22.30;79.20;;;;;;5040446;28;20052;-73
2021/06/17 06:09:48;;;;;;;11.93;9.55;;;22.30;78.90;;;;;;5043628;28;20025;-73
2021/06/17 06:12:14;;;;;;;14.70;10.13;;;22.40;79.10;;;;;;5044364;28;20030;-73
2021/06/17 06:14:40;;;;;;;11.88;9.85;;;22.60;77.90;;;;;;5043390;28;20362;-73
2021/06/17 06:17:06;;;;;;;28.35;12.27;;;22.70;74.30;;;;;;5042048;28;20034;-73
2021/06/17 06:19:32;;;;;;;11.73;10.07;;;22.80;73.00;;;;;;5042293;28;20033;-73
2021/06/17 06:21:58;;;;;;;12.32;9.32;;;22.90;75.50;;;;;;5043958;28;20017;-74
2021/06/17 06:24:23;;;;;;;11.55;9.23;;;22.90;75.20;;;;;;5042022;28;20048;-73
2021/06/17 06:26:49;;;;;;;17.08;9.60;;;23.00;74.50;;;;;;5054742;28;20028;-73
2021/06/17 06:29:15;;;;;;;20.00;9.23;;;23.10;73.10;;;;;;5055597;28;20025;-74
2021/06/17 06:31:42;;;;;;;8.75;7.60;;;23.30;70.40;;;;;;5043524;28;20043;-73
2021/06/17 06:34:07;;;;;;;9.38;8.32;;;23.30;68.80;;;;;;5035699;28;20049;-73
2021/06/17 06:36:33;;;;;;;13.75;9.68;;;23.40;67.00;;;;;;5035803;28;20462;-74
2021/06/17 06:38:59;;;;;;;7.90;7.10;;;23.60;68.50;;;;;;5035394;28;20038;-73
2021/06/17 06:41:24;;;;;;;8.85;7.53;;;23.60;65.10;;;;;;5039772;28;20034;-73
2021/06/17 06:43:50;;;;;;;9.55;7.65;;;23.70;66.00;;;;;;5045097;28;20021;-73
2021/06/17 06:46:16;;;;;;;10.77;8.07;;;23.80;63.10;;;;;;5043343;28;20096;-73
2021/06/17 06:48:42;;;;;;;23.75;10.15;;;23.90;61.80;;;;;;5045117;28;20064;-75
2021/06/17 06:51:08;;;;;;;7.22;6.60;;;23.90;63.00;;;;;;5043310;28;20021;-75
2021/06/17 06:53:34;;;;;;;10.73;7.28;;;24.00;62.80;;;;;;5043091;28;20108;-75
2021/06/17 06:55:59;;;;;;;15.60;7.40;;;24.20;63.10;;;;;;5043516;28;20025;-75
2021/06/17 06:58:25;;;;;;;24.13;9.13;;;24.30;60.50;;;;;;5044500;28;20402;-75
2021/06/17 07:00:52;;;;;;;11.38;7.25;;;24.40;59.20;;;;;;5041866;28;20043;-73
2021/06/17 07:03:17;;;;;;;15.60;7.63;;;24.50;59.30;;;;;;5042393;28;20487;-73
2021/06/17 07:05:43;;;;;;;19.20;8.73;;;24.60;58.70;;;;;;5041672;28;20033;-73
2021/06/17 07:08:11;;;;;;;29.67;8.50;;;24.70;57.90;;;;;;5033567;28;20053;-73
2021/06/17 07:10:40;;;;;;;7.43;6.32;;;24.80;57.00;;;;;;5034995;28;20040;-73
2021/06/17 07:13:06;;;;;;;6.80;6.00;;;24.80;55.60;;;;;;5034886;28;20034;-73
2021/06/17 07:15:32;;;;;;;8.65;6.75;;;24.90;55.10;;;;;;5034974;28;20026;-73
2021/06/17 07:17:57;;;;;;;10.30;6.75;;;25.00;55.60;;;;;;5034887;28;20033;-73
2021/06/17 07:20:23;;;;;;;11.93;8.00;;;25.20;56.50;;;;;;5033022;28;20029;-73
2021/06/17 07:22:48;;;;;;;10.68;6.45;;;25.10;55.40;;;;;;5034995;28;20022;-73
2021/06/17 07:25:14;;;;;;;11.85;6.65;;;25.30;56.00;;;;;;5033452;28;20029;-74
2021/06/17 07:27:40;;;;;;;8.98;6.97;;;25.50;57.00;;;;;;5034908;28;20030;-73
2021/06/17 07:30:06;;;;;;;9.55;7.22;;;25.60;55.00;;;;;;5039768;28;20034;-73
2021/06/17 07:32:32;;;;;;;9.32;6.88;;;25.40;54.90;;;;;;5044387;28;20018;-73
2021/06/17 07:34:58;;;;;;;11.73;7.07;;;25.30;55.90;;;;;;5048240;28;20031;-73
2021/06/17 07:37:23;;;;;;;7.90;6.80;;;25.50;55.10;;;;;;5043976;28;20017;-73
2021/06/17 07:39:49;;;;;;;7.28;6.55;;;25.40;54.90;;;;;;5042793;28;20059;-73
2021/06/17 07:42:15;;;;;;;7.35;6.13;;;25.60;56.20;;;;;;5038844;28;20025;-73
2021/06/17 07:44:40;;;;;;;9.60;6.72;;;25.60;55.20;;;;;;5045203;28;20029;-73
2021/06/17 07:47:06;;;;;;;12.35;7.13;;;25.60;55.40;;;;;;5046706;28;20105;-73
2021/06/17 07:49:32;;;;;;;8.35;6.45;;;25.50;54.70;;;;;;5043706;28;20103;-73
2021/06/17 07:51:58;;;;;;;19.02;7.38;;;25.60;55.40;;;;;;5046057;28;20025;-73
2021/06/17 07:54:24;;;;;;;8.20;6.47;;;25.50;55.90;;;;;;5042048;28;20052;-73
2021/06/17 07:56:50;;;;;;;14.27;7.10;;;25.50;54.90;;;;;;5042660;28;20021;-73
2021/06/17 07:59:18;;;;;;;55.60;14.07;;;25.60;54.60;;;;;;5042910;28;20036;-73
2021/06/17 08:01:45;;;;;;;84.97;17.35;;;25.90;54.40;;;;;;5041536;28;20497;-73
2021/06/17 08:04:11;;;;;;;11.85;7.32;;;25.90;52.90;;;;;;5040533;28;20162;-73
2021/06/17 08:06:37;;;;;;;21.60;9.60;;;25.90;53.80;;;;;;5043264;28;20104;-75
2021/06/17 08:09:04;;;;;;;45.50;12.02;;;26.00;54.70;;;;;;5041571;28;20074;-75
2021/06/17 08:11:29;;;;;;;11.20;7.38;;;26.10;55.60;;;;;;5041394;28;20021;-75
2021/06/17 08:13:55;;;;;;;43.65;11.63;;;26.20;53.40;;;;;;5043343;28;20029;-75
2021/06/17 08:16:21;;;;;;;17.27;7.93;;;26.30;53.70;;;;;;5041659;28;20383;-75
2021/06/17 08:18:47;;;;;;;30.77;9.25;;;26.40;54.50;;;;;;5053467;28;20406;-75
2021/06/17 08:21:12;;;;;;;12.60;6.22;;;26.10;53.30;;;;;;5046934;28;20450;-75
2021/06/17 08:23:38;;;;;;;45.22;11.75;;;26.40;52.60;;;;;;5041167;28;20033;-75
2021/06/17 08:26:04;;;;;;;70.45;12.98;;;26.50;53.10;;;;;;5040970;28;20477;-75
2021/06/17 08:28:30;;;;;;;9.60;6.32;;;26.50;52.40;;;;;;5041428;28;20063;-75
2021/06/17 08:30:56;;;;;;;12.07;6.65;;;26.60;51.70;;;;;;5041826;28;20033;-75
2021/06/17 08:33:22;;;;;;;29.98;9.65;;;26.20;51.30;;;;;;5039596;28;20022;-75
2021/06/17 08:35:52;;;;;;;14.45;8.27;;;26.40;51.50;;;;;;5042467;28;20040;-75
2021/06/17 08:38:21;;;;;;;12.95;7.28;;;26.30;51.80;;;;;;5042403;28;20056;-75
2021/06/17 08:40:48;;;;;;;11.10;7.10;;;26.50;49.80;;;;;;5041094;28;20032;-75
2021/06/17 08:43:14;;;;;;;9.48;7.00;;;26.40;50.30;;;;;;5041956;28;20021;-75
2021/06/17 08:45:40;;;;;;;11.30;6.47;;;26.30;49.70;;;;;;5043061;28;20029;-75
2021/06/17 08:48:06;;;;;;;10.77;7.07;;;26.30;51.10;;;;;;5040608;28;20434;-75
2021/06/17 08:50:32;;;;;;;12.02;7.28;;;26.30;50.50;;;;;;5042087;28;20029;-75
2021/06/17 08:52:58;;;;;;;10.27;6.93;;;26.40;51.30;;;;;;5039628;28;20483;-74
2021/06/17 08:55:26;;;;;;;12.63;5.60;;;26.60;51.70;;;;;;5042653;28;20036;-75
2021/06/17 08:57:54;;;;;;;7.95;5.20;;;27.00;50.70;;;;;;5040058;28;20033;-75
2021/06/17 09:00:23;;;;;;;5.70;5.07;;;26.70;47.70;;;;;;5041134;28;20499;-75
2021/06/17 09:02:56;;;;;;;12.30;6.00;;;26.60;47.30;;;;;;5040785;28;20527;-75
2021/06/17 09:05:23;;;;;;;13.32;5.97;;;26.60;47.00;;;;;;5040430;28;20033;-75
2021/06/17 09:07:50;;;;;;;12.32;5.82;;;26.80;47.80;;;;;;5042209;28;20052;-75
2021/06/17 09:10:16;;;;;;;31.30;10.88;;;26.70;48.10;;;;;;5041629;28;20028;-74
2021/06/17 09:12:46;;;;;;;16.10;6.85;;;26.60;48.60;;;;;;5040492;28;20029;-75
2021/06/17 09:15:12;;;;;;;7.38;5.28;;;26.70;48.90;;;;;;5040402;28;20021;-74
2021/06/17 09:17:39;;;;;;;11.35;4.95;;;26.80;47.50;;;;;;5040668;28;20402;-74
2021/06/17 09:20:06;;;;;;;6.72;5.32;;;27.00;48.10;;;;;;5038849;28;20029;-75
2021/06/17 09:22:31;;;;;;;7.53;5.80;;;26.80;47.30;;;;;;5043227;28;20079;-75
2021/06/17 09:24:58;;;;;;;12.55;6.38;;;26.90;48.00;;;;;;5043267;28;20068;-74
2021/06/17 09:27:38;;;;;;;16.60;6.85;;;26.90;48.50;;;;;;5040074;28;20028;-74
2021/06/17 09:30:10;;;;;;;8.75;6.55;;;27.00;49.00;;;;;;5041850;28;20382;-74
2021/06/17 09:32:36;;;;;;;10.52;6.28;;;26.90;49.40;;;;;;5039993;28;20112;-74
2021/06/17 09:35:24;;;;;;;7.85;6.20;;;26.80;48.40;;;;;;5049063;28;20025;-74
2021/06/17 09:37:51;;;;;;;6.90;5.50;;;26.60;50.10;;;;;;5038122;28;20044;-75
2021/06/17 09:40:27;;;;;;;8.13;6.45;;;26.60;49.90;;;;;;5037165;28;20100;-75
2021/06/17 09:43:15;;;;;;;8.38;6.68;;;26.80;50.50;;;;;;5043166;28;20386;-74
2021/06/17 09:45:54;;;;;;;8.18;5.78;;;26.70;50.00;;;;;;5043763;28;20045;-75
2021/06/17 09:48:42;;;;;;;6.57;5.68;;;26.90;49.60;;;;;;5046302;28;20029;-75
2021/06/17 09:51:30;;;;;;;7.13;5.45;;;27.00;49.80;;;;;;5044424;28;20050;-74
2021/06/17 09:54:15;;;;;;;7.03;5.93;;;27.20;49.60;;;;;;5045708;28;20036;-75
2021/06/17 09:56:43;;;;;;;7.68;5.28;;;27.10;48.50;;;;;;5043950;28;20017;-75
2021/06/17 09:59:10;;;;;;;6.15;5.13;;;26.90;47.40;;;;;;5045472;28;20486;-74
2021/06/17 10:01:43;;;;;;;8.85;5.68;;;26.90;46.60;;;;;;5046511;28;20026;-74
2021/06/17 10:04:14;;;;;;;23.52;7.93;;;27.30;48.50;;;;;;5042657;28;20538;-75
2021/06/17 10:06:42;;;;;;;18.90;7.10;;;27.10;49.20;;;;;;5045789;28;20025;-74
2021/06/17 10:09:10;;;;;;;32.00;9.13;;;27.00;49.90;;;;;;5043348;28;20017;-74
2021/06/17 10:11:38;;;;;;;23.77;6.90;;;27.10;49.30;;;;;;5042754;28;20032;-74
2021/06/17 10:14:04;;;;;;;7.30;5.22;;;27.20;48.40;;;;;;5045506;28;20387;-74
2021/06/17 10:16:30;;;;;;;23.75;8.00;;;27.20;47.50;;;;;;5044370;28;20020;-74
2021/06/17 10:18:56;;;;;;;13.70;7.57;;;27.40;48.70;;;;;;5043149;28;20402;-74
2021/06/17 10:21:22;;;;;;;9.82;6.35;;;27.30;49.80;;;;;;5044186;28;20033;-75
2021/06/17 10:23:50;;;;;;;9.45;6.05;;;27.40;49.70;;;;;;5043511;28;20439;-74
2021/06/17 10:26:27;;;;;;;19.92;6.60;;;27.60;49.60;;;;;;5043211;28;20017;-74
2021/06/17 10:28:55;;;;;;;38.50;10.25;;;27.70;48.00;;;;;;5037764;28;20390;-73
2021/06/17 10:31:51;;;;;;;19.98;7.97;;;27.90;47.30;;;;;;5033148;28;20026;-74
2021/06/17 10:34:22;;;;;;;7.85;5.38;;;27.90;47.00;;;;;;5032150;28;20395;-74
2021/06/17 10:37:04;;;;;;;10.95;6.43;;;27.70;47.40;;;;;;5042219;28;20052;-74
2021/06/17 10:39:36;;;;;;;11.98;6.63;;;27.60;47.60;;;;;;5044738;28;20065;-74
2021/06/17 10:42:02;;;;;;;;;;;27.50;47.80;;;;;;5038266;28;20057;-74
2021/06/17 10:44:38;;;;;;;7.40;6.35;;;27.50;48.30;;;;;;5037651;28;19956;-74
2021/06/17 10:47:06;;;;;;;37.20;10.40;;;27.50;49.70;;;;;;5045066;28;20021;-73
2021/06/17 10:49:50;;;;;;;6.53;5.75;;;27.50;49.80;;;;;;5042791;28;20076;-73
2021/06/17 10:52:28;;;;;;;7.40;5.88;;;27.40;49.10;;;;;;5044160;28;20037;-74
2021/06/17 10:54:59;;;;;;;25.30;8.88;;;27.50;49.80;;;;;;5043008;28;20017;-73
2021/06/17 10:57:45;;;;;;;8.98;6.72;;;27.00;50.00;;;;;;5042815;28;20024;-74
2021/06/17 11:00:29;;;;;;;8.63;6.88;;;26.90;50.30;;;;;;5034725;28;20036;-74
2021/06/17 11:02:56;;;;;;;9.65;6.93;;;26.90;51.20;;;;;;5038201;28;20099;-74
2021/06/17 11:05:31;;;;;;;7.70;6.47;;;27.10;50.80;;;;;;5043145;28;20100;-74
2021/06/17 11:08:21;;;;;;;11.88;7.20;;;26.90;50.70;;;;;;5041128;28;20033;-74
2021/06/17 11:10:51;;;;;;;21.92;9.00;;;26.70;50.70;;;;;;5053596;28;20021;-74
2021/06/17 11:13:41;;;;;;;13.20;7.40;;;27.00;51.80;;;;;;5043134;28;20022;-74
2021/06/17 11:16:13;;;;;;;7.70;6.90;;;26.90;49.80;;;;;;5048071;28;20028;-74
2021/06/17 11:18:47;;;;;;;10.57;6.93;;;26.60;49.70;;;;;;5048585;28;20037;-74
2021/06/17 11:21:28;;;;;;;7.35;6.65;;;26.40;50.60;;;;;;5043792;28;20482;-74
2021/06/17 11:24:20;;;;;;;7.93;6.93;;;26.50;50.70;;;;;;5044158;28;20501;-74
2021/06/17 11:26:48;;;;;;;6.72;5.97;;;26.50;50.70;;;;;;5045118;28;20040;-74
2021/06/17 11:29:18;;;;;;;9.45;6.65;;;26.80;51.00;;;;;;5041205;28;20013;-74
2021/06/17 11:31:54;;;;;;;8.82;5.80;;;27.00;51.00;;;;;;5045100;28;20020;-74
2021/06/17 11:34:32;;;;;;;9.00;6.50;;;27.10;49.90;;;;;;5044864;28;20051;-74
2021/06/17 11:37:11;;;;;;;9.00;6.75;;;27.20;49.80;;;;;;5044467;28;20040;-74
2021/06/17 11:39:36;;;;;;;7.85;5.70;;;27.20;48.90;;;;;;5044186;28;20025;-73
2021/06/17 11:42:04;;;;;;;7.55;6.03;;;27.20;48.20;;;;;;5042692;28;20087;-73
2021/06/17 11:44:32;;;;;;;8.27;6.60;;;27.30;48.80;;;;;;5044163;28;20032;-73
2021/06/17 11:47:11;;;;;;;14.90;7.85;;;27.40;48.90;;;;;;5044198;28;20029;-73
2021/06/17 11:49:44;;;;;;;8.63;6.55;;;27.60;48.80;;;;;;5044190;28;20489;-73
2021/06/17 11:52:20;;;;;;;31.00;8.57;;;27.70;47.90;;;;;;5043163;28;20017;-74
2021/06/17 11:54:48;;;;;;;49.83;13.52;;;27.70;49.20;;;;;;5042596;28;20087;-74
2021/06/17 11:57:14;;;;;;;8.43;6.28;;;27.50;48.70;;;;;;5044332;28;20021;-73
2021/06/17 11:59:44;;;;;;;22.48;7.95;;;27.30;49.30;;;;;;5042665;28;20118;-73
2021/06/17 12:02:18;;;;;;;14.55;6.85;;;27.50;48.80;;;;;;5044156;28;20355;-74
2021/06/17 12:04:48;;;;;;;7.82;7.03;;;27.50;48.50;;;;;;5044695;28;20025;-74
2021/06/17 12:07:15;;;;;;;8.07;6.30;;;27.60;48.50;;;;;;5042091;28;20017;-74
2021/06/17 12:09:41;;;;;;;7.85;6.95;;;27.80;48.40;;;;;;5037946;28;20021;-73
2021/06/17 12:12:18;;;;;;;7.85;6.63;;;28.10;49.10;;;;;;5038348;28;20029;-73
2021/06/17 12:14:46;;;;;;;7.90;6.28;;;28.20;47.30;;;;;;5052663;28;20028;-73
2021/06/17 12:17:12;;;;;;;8.50;6.38;;;28.10;47.50;;;;;;5053086;28;20024;-74
2021/06/17 12:19:38;;;;;;;8.93;6.20;;;27.80;47.30;;;;;;5042358;28;20055;-73
2021/06/17 12:22:07;;;;;;;8.02;6.38;;;27.80;47.00;;;;;;5042876;28;20101;-74
2021/06/17 12:24:33;;;;;;;7.28;6.13;;;27.90;46.60;;;;;;5044005;28;20108;-74
2021/06/17 12:26:59;;;;;;;10.05;6.32;;;28.10;46.50;;;;;;5042231;28;20491;-74
2021/06/17 12:29:26;;;;;;;8.57;6.68;;;28.10;45.80;;;;;;5044077;28;20386;-73
2021/06/17 12:31:56;;;;;;;7.60;6.40;;;28.30;47.20;;;;;;5043171;28;20010;-73
2021/06/17 12:34:22;;;;;;;8.00;6.15;;;28.30;46.50;;;;;;5040764;28;20501;-74
2021/06/17 12:37:03;;;;;;;8.68;5.72;;;28.50;47.20;;;;;;5040197;28;20032;-73
2021/06/17 12:39:29;;;;;;;7.28;6.28;;;28.70;44.80;;;;;;5041526;28;20499;-74
2021/06/17 12:41:55;;;;;;;8.73;5.90;;;28.80;45.10;;;;;;5043020;28;20033;-74
2021/06/17 12:44:40;;;;;;;8.38;6.38;;;29.00;45.20;;;;;;5041950;28;20040;-73
2021/06/17 12:47:14;;;;;;;8.00;6.28;;;29.10;44.60;;;;;;5050412;28;20037;-74
2021/06/17 12:52:26;;;;;;;9.85;7.63;;;29.00;45.40;;;;;;5053473;28;20048;-74